Time,TemperatureF,DewpointF,PressureIn,WindDirection,WindDirectionDegrees,WindSpeedMPH,WindSpeedGustMPH,Humidity,HourlyPrecipIn,Conditions,Clouds,dailyrainin,SoftwareType,DateUTC
2013-03-05 00:02:00,38.0,23.0,29.95,SW,230,5.0,11.0,54,0.00,,,0.00,,2013-03-05 05:02:00,
2013-03-05 00:12:00,38.0,23.0,29.95,SW,230,5.0,11.0,54,0.00,,,0.00,,2013-03-05 05:12:00,
2013-03-05 00:22:00,39.0,24.0,29.95,SW,234,8.0,15.0,54,0.00,,,0.00,,2013-03-05 05:22:00,
2013-03-05 00:32:00,39.0,24.0,29.95,SW,222,8.0,17.0,54,0.00,,,0.00,,2013-03-05 05:32:00,
2013-03-05 00:42:00,39.0,24.0,29.95,SW,222,8.0,17.0,54,0.00,,,0.00,,2013-03-05 05:42:00,
2013-03-05 00:52:00,38.0,24.0,29.95,SW,224,9.0,16.0,56,0.00,,,0.00,,2013-03-05 05:52:00,
2013-03-05 01:01:00,38.0,24.0,29.94,SW,232,9.0,15.0,57,0.00,,,0.00,,2013-03-05 06:01:00,
2013-03-05 01:11:00,38.0,24.0,29.94,SW,232,9.0,15.0,57,0.00,,,0.00,,2013-03-05 06:11:00,
2013-03-05 01:22:00,37.0,24.0,29.94,SW,229,9.0,16.0,58,0.00,,,0.00,,2013-03-05 06:22:00,
2013-03-05 01:32:00,37.0,24.0,29.95,WSW,247,7.0,17.0,58,0.00,,,0.00,,2013-03-05 06:32:00,
2013-03-05 01:42:00,37.0,24.0,29.95,WSW,247,7.0,17.0,58,0.00,,,0.00,,2013-03-05 06:42:00,
2013-03-05 01:52:00,37.0,24.0,29.96,WSW,242,8.0,15.0,58,0.00,,,0.00,,2013-03-05 06:52:00,
2013-03-05 02:01:00,38.0,24.0,29.95,SW,231,8.0,13.0,57,0.00,,,0.00,,2013-03-05 07:01:00,
2013-03-05 02:11:00,38.0,24.0,29.95,SW,231,8.0,13.0,57,0.00,,,0.00,,2013-03-05 07:11:00,
2013-03-05 02:22:00,38.0,25.0,29.95,WSW,252,6.0,12.0,58,0.00,,,0.00,,2013-03-05 07:22:00,
2013-03-05 02:31:00,37.0,24.0,29.95,WSW,242,7.0,14.0,58,0.00,,,0.00,,2013-03-05 07:31:00,
2013-03-05 02:42:00,37.0,24.0,29.95,WSW,242,7.0,14.0,58,0.00,,,0.00,,2013-03-05 07:42:00,
2013-03-05 02:52:00,37.0,24.0,29.94,WSW,240,4.0,13.0,58,0.00,,,0.00,,2013-03-05 07:52:00,
2013-03-05 03:02:00,37.0,24.0,29.93,SW,229,7.0,10.0,59,0.00,,,0.00,,2013-03-05 08:02:00,
2013-03-05 03:11:00,37.0,24.0,29.93,SW,229,7.0,10.0,59,0.00,,,0.00,,2013-03-05 08:11:00,
2013-03-05 03:21:00,37.0,24.0,29.93,WSW,244,6.0,9.0,59,0.00,,,0.00,,2013-03-05 08:21:00,
2013-03-05 03:31:00,37.0,24.0,29.91,SW,232,7.0,10.0,60,0.00,,,0.00,,2013-03-05 08:31:00,
2013-03-05 03:41:00,37.0,24.0,29.91,SW,232,7.0,10.0,60,0.00,,,0.00,,2013-03-05 08:41:00,
2013-03-05 03:52:00,37.0,24.0,29.91,SW,229,6.0,10.0,60,0.00,,,0.00,,2013-03-05 08:52:00,
2013-03-05 04:01:00,37.0,24.0,29.90,WSW,237,6.0,10.0,60,0.00,,,0.00,,2013-03-05 09:01:00,
2013-03-05 04:11:00,37.0,24.0,29.90,WSW,237,6.0,10.0,60,0.00,,,0.00,,2013-03-05 09:11:00,
2013-03-05 04:21:00,38.0,26.0,29.91,WSW,240,5.0,10.0,61,0.00,,,0.00,,2013-03-05 09:21:00,
2013-03-05 04:32:00,38.0,25.0,29.90,SW,232,6.0,11.0,60,0.00,,,0.00,,2013-03-05 09:32:00,
2013-03-05 04:43:00,38.0,25.0,29.90,SW,232,6.0,11.0,60,0.00,,,0.00,,2013-03-05 09:43:00,
2013-03-05 04:52:00,38.0,25.0,29.90,West,265,2.0,10.0,60,0.00,,,0.00,,2013-03-05 09:52:00,
2013-03-05 05:01:00,38.0,26.0,29.90,WSW,246,6.0,10.0,61,0.00,,,0.00,,2013-03-05 10:01:00,
2013-03-05 05:11:00,38.0,26.0,29.90,WSW,246,6.0,10.0,61,0.00,,,0.00,,2013-03-05 10:11:00,
2013-03-05 05:22:00,38.0,26.0,29.90,WSW,249,6.0,9.0,61,0.00,,,0.00,,2013-03-05 10:22:00,
2013-03-05 05:32:00,38.0,26.0,29.90,WSW,250,4.0,7.0,62,0.00,,,0.00,,2013-03-05 10:32:00,
2013-03-05 05:42:00,38.0,26.0,29.90,WSW,250,4.0,7.0,62,0.00,,,0.00,,2013-03-05 10:42:00,
2013-03-05 05:52:00,38.0,26.0,29.89,SW,223,4.0,10.0,62,0.00,,,0.00,,2013-03-05 10:52:00,
2013-03-05 06:01:00,38.0,26.0,29.90,SW,229,4.0,9.0,62,0.00,,,0.00,,2013-03-05 11:01:00,
2013-03-05 06:11:00,38.0,26.0,29.90,SW,229,4.0,9.0,62,0.00,,,0.00,,2013-03-05 11:11:00,
2013-03-05 06:22:00,38.0,27.0,29.90,WSW,244,3.0,9.0,63,0.00,,,0.00,,2013-03-05 11:22:00,
2013-03-05 06:32:00,38.0,27.0,29.90,WSW,247,1.0,6.0,64,0.00,,,0.00,,2013-03-05 11:32:00,
2013-03-05 06:42:00,38.0,27.0,29.90,WSW,247,1.0,6.0,64,0.00,,,0.00,,2013-03-05 11:42:00,
2013-03-05 06:52:00,38.0,27.0,29.89,WSW,242,5.0,9.0,65,0.00,,,0.00,,2013-03-05 11:52:00,
2013-03-05 07:02:00,38.0,27.0,29.89,WSW,240,3.0,6.0,64,0.00,,,0.00,,2013-03-05 12:02:00,
2013-03-05 07:12:00,38.0,27.0,29.89,WSW,240,3.0,6.0,64,0.00,,,0.00,,2013-03-05 12:12:00,
2013-03-05 07:22:00,38.0,28.0,29.89,West,269,2.0,7.0,66,0.00,,,0.00,,2013-03-05 12:22:00,
2013-03-05 07:32:00,39.0,29.0,29.88,WSW,251,2.0,5.0,66,0.00,,,0.00,,2013-03-05 12:32:00,
2013-03-05 07:42:00,39.0,29.0,29.88,WSW,251,2.0,5.0,66,0.00,,,0.00,,2013-03-05 12:42:00,
2013-03-05 07:53:00,39.0,29.0,29.88,WSW,251,2.0,6.0,67,0.00,,,0.00,,2013-03-05 12:53:00,
2013-03-05 08:02:00,39.0,29.0,29.88,SW,236,1.0,6.0,68,0.00,,,0.00,,2013-03-05 13:02:00,
2013-03-05 08:12:00,39.0,29.0,29.88,SW,236,1.0,6.0,68,0.00,,,0.00,,2013-03-05 13:12:00,
2013-03-05 08:22:00,39.0,30.0,29.88,WSW,248,2.0,4.0,70,0.00,,,0.00,,2013-03-05 13:22:00,
2013-03-05 08:32:00,39.0,30.0,29.88,WSW,241,0.0,6.0,70,0.00,,,0.00,,2013-03-05 13:32:00,
2013-03-05 08:42:00,39.0,30.0,29.88,WSW,241,0.0,6.0,70,0.00,,,0.00,,2013-03-05 13:42:00,
2013-03-05 08:52:00,38.0,31.0,29.88,WSW,241,0.0,1.0,76,0.00,,,0.00,,2013-03-05 13:52:00,
2013-03-05 09:02:00,38.0,32.0,29.88,WSW,241,1.0,4.0,80,0.00,,,0.00,,2013-03-05 14:02:00,
2013-03-05 09:11:00,38.0,32.0,29.88,WSW,241,1.0,4.0,80,0.00,,,0.00,,2013-03-05 14:11:00,
2013-03-05 09:22:00,38.0,32.0,29.88,WSW,241,0.0,1.0,80,0.00,,,0.00,,2013-03-05 14:22:00,
2013-03-05 09:32:00,38.0,33.0,29.87,WSW,241,0.0,2.0,83,0.00,,,0.00,,2013-03-05 14:32:00,
2013-03-05 09:42:00,38.0,33.0,29.87,WSW,241,0.0,2.0,83,0.00,,,0.00,,2013-03-05 14:42:00,
2013-03-05 09:52:00,38.0,34.0,29.87,WSW,241,0.0,3.0,86,0.00,,,0.00,,2013-03-05 14:52:00,
2013-03-05 10:02:00,39.0,35.0,29.86,WSW,241,1.0,3.0,87,0.00,,,0.00,,2013-03-05 15:02:00,
2013-03-05 10:11:00,39.0,35.0,29.86,WSW,241,1.0,3.0,87,0.00,,,0.00,,2013-03-05 15:11:00,
2013-03-05 10:21:00,39.0,35.0,29.86,WSW,241,0.0,2.0,85,0.00,,,0.00,,2013-03-05 15:21:00,
2013-03-05 10:32:00,40.0,36.0,29.85,WSW,241,1.0,3.0,87,0.00,,,0.00,,2013-03-05 15:32:00,
2013-03-05 10:42:00,40.0,36.0,29.85,WSW,241,1.0,3.0,87,0.00,,,0.00,,2013-03-05 15:42:00,
2013-03-05 10:52:00,40.0,36.0,29.85,WSW,241,0.0,2.0,86,0.00,,,0.00,,2013-03-05 15:52:00,
2013-03-05 11:01:00,40.0,36.0,29.85,WSW,241,1.0,2.0,84,0.00,,,0.00,,2013-03-05 16:01:00,
2013-03-05 11:11:00,40.0,36.0,29.85,WSW,241,1.0,2.0,84,0.00,,,0.00,,2013-03-05 16:11:00,
2013-03-05 11:22:00,41.0,36.0,29.84,WSW,241,0.0,2.0,82,0.00,,,0.00,,2013-03-05 16:22:00,
2013-03-05 11:32:00,41.0,34.0,29.85,North,5,1.0,4.0,77,0.01,,,0.01,,2013-03-05 16:32:00,
2013-03-05 11:42:00,41.0,34.0,29.85,North,5,1.0,4.0,77,0.01,,,0.01,,2013-03-05 16:42:00,
2013-03-05 11:52:00,39.0,36.0,29.84,NW,311,0.0,1.0,90,0.03,,,0.03,,2013-03-05 16:52:00,
2013-03-05 12:01:00,38.0,36.0,29.83,SW,220,3.0,5.0,93,0.03,,,0.03,,2013-03-05 17:01:00,
2013-03-05 12:11:00,38.0,36.0,29.83,SW,220,3.0,5.0,93,0.03,,,0.03,,2013-03-05 17:11:00,
2013-03-05 12:21:00,38.0,36.0,29.82,SW,220,0.0,3.0,94,0.03,,,0.03,,2013-03-05 17:21:00,
2013-03-05 12:32:00,40.0,39.0,29.80,SW,220,1.0,3.0,96,0.02,,,0.03,,2013-03-05 17:32:00,
2013-03-05 12:42:00,40.0,39.0,29.80,SW,220,1.0,3.0,96,0.02,,,0.03,,2013-03-05 17:42:00,
2013-03-05 12:53:00,42.0,41.0,29.80,SW,221,0.0,5.0,96,0.00,,,0.03,,2013-03-05 17:53:00,
2013-03-05 13:02:00,41.0,39.0,29.79,SW,221,1.0,5.0,94,0.00,,,0.03,,2013-03-05 18:02:00,
2013-03-05 13:11:00,41.0,39.0,29.79,SW,221,1.0,5.0,94,0.00,,,0.03,,2013-03-05 18:11:00,
2013-03-05 13:22:00,41.0,39.0,29.78,SW,221,1.0,4.0,94,0.00,,,0.03,,2013-03-05 18:22:00,
2013-03-05 13:32:00,42.0,40.0,29.78,SW,221,0.0,4.0,92,0.00,,,0.03,,2013-03-05 18:32:00,
2013-03-05 13:42:00,42.0,40.0,29.78,SW,221,0.0,4.0,92,0.00,,,0.03,,2013-03-05 18:42:00,
2013-03-05 13:53:00,42.0,40.0,29.77,SW,221,2.0,8.0,91,0.00,,,0.03,,2013-03-05 18:53:00,
2013-03-05 14:01:00,42.0,39.0,29.75,SSW,213,3.0,5.0,90,0.00,,,0.03,,2013-03-05 19:01:00,
2013-03-05 14:11:00,42.0,39.0,29.75,SSW,213,3.0,5.0,90,0.00,,,0.03,,2013-03-05 19:11:00,
2013-03-05 14:21:00,41.0,38.0,29.74,South,189,2.0,6.0,90,0.00,,,0.03,,2013-03-05 19:21:00,
2013-03-05 14:32:00,41.0,38.0,29.74,South,189,4.0,7.0,89,0.00,,,0.03,,2013-03-05 19:32:00,
2013-03-05 14:42:00,41.0,38.0,29.74,South,189,4.0,7.0,89,0.00,,,0.03,,2013-03-05 19:42:00,
2013-03-05 14:52:00,40.0,37.0,29.74,South,181,5.0,8.0,88,0.00,,,0.03,,2013-03-05 19:52:00,
2013-03-05 15:01:00,40.0,37.0,29.74,South,181,5.0,8.0,89,0.00,,,0.03,,2013-03-05 20:01:00,
2013-03-05 15:11:00,41.0,39.0,29.73,SSW,205,6.0,12.0,94,0.01,,,0.04,,2013-03-05 20:11:00,
2013-03-05 15:22:00,41.0,39.0,29.73,SSW,205,6.0,12.0,94,0.01,,,0.04,,2013-03-05 20:22:00,
2013-03-05 15:32:00,41.0,40.0,29.72,SW,217,7.0,10.0,96,0.02,,,0.05,,2013-03-05 20:32:00,
2013-03-05 15:42:00,41.0,40.0,29.72,SW,217,7.0,10.0,96,0.02,,,0.05,,2013-03-05 20:42:00,
2013-03-05 15:52:00,41.0,40.0,29.70,SSW,208,6.0,13.0,97,0.02,,,0.05,,2013-03-05 20:52:00,
2013-03-05 16:02:00,42.0,41.0,29.69,SW,231,6.0,10.0,98,0.03,,,0.06,,2013-03-05 21:02:00,
2013-03-05 16:11:00,42.0,41.0,29.69,SW,231,6.0,10.0,98,0.03,,,0.06,,2013-03-05 21:11:00,
2013-03-05 16:22:00,41.0,40.0,29.68,SSW,205,5.0,8.0,97,0.02,,,0.06,,2013-03-05 21:22:00,
2013-03-05 16:32:00,41.0,40.0,29.67,SSE,158,7.0,10.0,98,0.01,,,0.06,,2013-03-05 21:32:00,
2013-03-05 16:42:00,41.0,40.0,29.67,SSE,158,7.0,10.0,98,0.01,,,0.06,,2013-03-05 21:42:00,
2013-03-05 16:52:00,40.0,39.0,29.65,SSW,205,9.0,17.0,98,0.01,,,0.06,,2013-03-05 21:52:00,
2013-03-05 17:01:00,42.0,41.0,29.63,South,190,12.0,23.0,98,0.00,,,0.06,,2013-03-05 22:01:00,
2013-03-05 17:11:00,42.0,41.0,29.63,South,190,12.0,23.0,98,0.00,,,0.06,,2013-03-05 22:11:00,
2013-03-05 17:22:00,42.0,41.0,29.62,South,181,11.0,19.0,98,0.00,,,0.06,,2013-03-05 22:22:00,
2013-03-05 17:32:00,41.0,40.0,29.60,South,188,11.0,18.0,98,0.01,,,0.07,,2013-03-05 22:32:00,
2013-03-05 17:42:00,41.0,40.0,29.60,South,188,11.0,18.0,98,0.01,,,0.07,,2013-03-05 22:42:00,
2013-03-05 17:52:00,40.0,39.0,29.60,SSE,156,5.0,15.0,98,0.04,,,0.10,,2013-03-05 22:52:00,
2013-03-05 18:01:00,41.0,40.0,29.62,SSW,201,8.0,12.0,98,0.13,,,0.19,,2013-03-05 23:01:00,
2013-03-05 18:11:00,41.0,40.0,29.62,SSW,201,8.0,12.0,98,0.13,,,0.19,,2013-03-05 23:11:00,
2013-03-05 18:21:00,42.0,41.0,29.63,WSW,254,3.0,10.0,98,0.25,,,0.31,,2013-03-05 23:21:00,
2013-03-05 18:32:00,42.0,42.0,29.63,WSW,244,7.0,12.0,99,0.36,,,0.43,,2013-03-05 23:32:00,
2013-03-05 18:42:00,42.0,42.0,29.63,WSW,244,7.0,12.0,99,0.36,,,0.43,,2013-03-05 23:42:00,
2013-03-05 18:53:00,42.0,42.0,29.59,SSW,200,4.0,12.0,99,0.41,,,0.51,,2013-03-05 23:53:00,
2013-03-05 19:01:00,42.0,42.0,29.60,SSW,200,7.0,13.0,99,0.34,,,0.53,,2013-03-06 00:01:00,
2013-03-05 19:11:00,42.0,42.0,29.60,SSW,200,7.0,13.0,99,0.34,,,0.53,,2013-03-06 00:11:00,
2013-03-05 19:21:00,42.0,42.0,29.61,NW,308,4.0,7.0,99,0.26,,,0.58,,2013-03-06 00:21:00,
2013-03-05 19:32:00,41.0,41.0,29.61,NNW,327,4.0,10.0,99,0.19,,,0.59,,2013-03-06 00:32:00,
2013-03-05 19:42:00,41.0,41.0,29.61,NNW,327,4.0,10.0,99,0.19,,,0.59,,2013-03-06 00:42:00,
2013-03-05 19:52:00,41.0,41.0,29.59,WSW,247,6.0,10.0,99,0.09,,,0.60,,2013-03-06 00:52:00,
2013-03-05 20:02:00,41.0,41.0,29.58,WSW,249,4.0,8.0,99,0.07,,,0.60,,2013-03-06 01:02:00,
2013-03-05 20:11:00,41.0,41.0,29.58,WSW,249,4.0,8.0,99,0.07,,,0.60,,2013-03-06 01:11:00,
2013-03-05 20:21:00,41.0,41.0,29.57,WSW,252,5.0,9.0,99,0.02,,,0.60,,2013-03-06 01:21:00,
2013-03-05 20:32:00,41.0,41.0,29.57,WSW,243,6.0,9.0,99,0.00,,,0.60,,2013-03-06 01:32:00,
2013-03-05 20:42:00,41.0,41.0,29.57,WSW,243,6.0,9.0,99,0.00,,,0.60,,2013-03-06 01:42:00,
2013-03-05 20:52:00,40.0,40.0,29.56,WSW,244,6.0,11.0,99,0.00,,,0.60,,2013-03-06 01:52:00,
2013-03-05 21:01:00,41.0,41.0,29.56,WSW,244,7.0,14.0,99,0.00,,,0.60,,2013-03-06 02:01:00,
2013-03-05 21:11:00,41.0,41.0,29.56,WSW,244,7.0,14.0,99,0.00,,,0.60,,2013-03-06 02:11:00,
2013-03-05 21:22:00,40.0,40.0,29.55,West,267,11.0,25.0,99,0.00,,,0.60,,2013-03-06 02:22:00,
2013-03-05 21:32:00,40.0,40.0,29.56,West,270,7.0,15.0,99,0.00,,,0.60,,2013-03-06 02:32:00,
2013-03-05 21:42:00,40.0,40.0,29.56,West,270,7.0,15.0,99,0.00,,,0.60,,2013-03-06 02:42:00,
2013-03-05 21:52:00,38.0,38.0,29.55,NNW,340,7.0,11.0,99,0.00,,,0.60,,2013-03-06 02:52:00,
2013-03-05 22:02:00,36.0,35.0,29.56,NNW,330,8.0,14.0,98,0.01,,,0.61,,2013-03-06 03:02:00,
2013-03-05 22:11:00,36.0,35.0,29.56,NNW,330,8.0,14.0,98,0.01,,,0.61,,2013-03-06 03:11:00,
2013-03-05 22:22:00,35.0,34.0,29.57,NNW,339,7.0,14.0,98,0.03,,,0.63,,2013-03-06 03:22:00,
2013-03-05 22:32:00,34.0,34.0,29.56,North,355,8.0,18.0,98,0.04,,,0.64,,2013-03-06 03:32:00,
2013-03-05 22:42:00,34.0,34.0,29.56,North,355,8.0,18.0,98,0.04,,,0.64,,2013-03-06 03:42:00,
2013-03-05 22:53:00,33.0,32.0,29.55,NW,323,10.0,18.0,98,0.04,,,0.64,,2013-03-06 03:53:00,
2013-03-05 23:02:00,32.0,31.0,29.56,NW,313,12.0,20.0,96,0.03,,,0.64,,2013-03-06 04:02:00,
2013-03-05 23:11:00,32.0,31.0,29.56,NW,313,12.0,20.0,96,0.03,,,0.64,,2013-03-06 04:11:00,
2013-03-05 23:22:00,31.0,30.0,29.56,NNW,338,12.0,21.0,95,0.01,,,0.64,,2013-03-06 04:22:00,
2013-03-05 23:32:00,29.0,27.0,29.52,NNW,329,13.0,25.0,93,0.00,,,0.64,,2013-03-06 04:32:00,
2013-03-05 23:42:00,29.0,27.0,29.52,NNW,329,13.0,25.0,93,0.00,,,0.64,,2013-03-06 04:42:00,
2013-03-05 23:52:00,28.0,26.0,29.52,NW,318,13.0,23.0,92,0.00,,,0.64,,2013-03-06 04:52:00,